createdAt,value
2019-02-04T00:03:16.009Z,70.80
2019-02-04T00:08:06.916Z,70.90
2019-02-04T00:12:57.830Z,71.30
2019-02-04T00:17:49.536Z,72.10
2019-02-04T00:22:40.456Z,72.10
2019-02-04T00:27:31.375Z,72.40
2019-02-04T00:32:22.277Z,72.60
2019-02-04T00:37:13.193Z,72.60
2019-02-04T00:42:04.093Z,72.80
2019-02-04T00:46:55.015Z,73.00
2019-02-04T00:51:45.919Z,72.50
2019-02-04T00:56:36.856Z,71.10
2019-02-04T01:01:27.755Z,70.50
2019-02-04T01:06:18.674Z,71.00
2019-02-04T01:11:09.902Z,71.50
2019-02-04T01:16:00.807Z,71.80
2019-02-04T01:20:51.732Z,72.00
2019-02-04T01:25:42.741Z,72.30
2019-02-04T01:30:33.660Z,72.30
2019-02-04T01:35:24.569Z,72.40
2019-02-04T01:40:16.209Z,73.00
2019-02-04T01:45:08.156Z,71.70
2019-02-04T01:49:59.087Z,71.60
2019-02-04T01:54:49.994Z,70.50
2019-02-04T01:59:40.902Z,70.70
2019-02-04T02:04:32.565Z,71.70
2019-02-04T02:09:23.485Z,71.70
2019-02-04T02:14:14.389Z,72.00
2019-02-04T02:19:05.366Z,72.20
2019-02-04T02:23:56.234Z,72.50
2019-02-04T02:28:47.146Z,72.60
2019-02-04T02:33:38.053Z,72.70
2019-02-04T02:38:28.977Z,72.70
2019-02-04T02:43:19.882Z,73.30
2019-02-04T02:48:11.525Z,70.70
2019-02-04T02:53:03.166Z,70.90
2019-02-04T02:57:54.070Z,70.80
2019-02-04T03:02:45.729Z,71.80
2019-02-04T03:07:36.649Z,71.70
2019-02-04T03:12:27.567Z,72.10
2019-02-04T03:17:18.486Z,72.30
2019-02-04T03:22:09.500Z,72.60
2019-02-04T03:27:00.414Z,72.50
2019-02-04T03:31:52.055Z,72.70
2019-02-04T03:36:42.971Z,72.60
2019-02-04T03:41:33.946Z,73.40
2019-02-04T03:46:24.843Z,72.00
2019-02-04T03:51:15.738Z,70.90
2019-02-04T03:56:06.637Z,70.90
2019-02-04T04:00:57.568Z,71.30
2019-02-04T04:05:48.491Z,71.70
2019-02-04T04:10:39.646Z,72.00
2019-02-04T04:15:30.591Z,72.20
2019-02-04T04:20:22.284Z,72.60
2019-02-04T04:25:14.101Z,72.60
2019-02-04T04:30:08.898Z,72.70
2019-02-04T04:35:00.553Z,73.00
2019-02-04T04:39:51.485Z,73.00
2019-02-04T04:44:42.402Z,72.70
2019-02-04T04:49:33.323Z,71.30
2019-02-04T04:54:24.232Z,70.60
2019-02-04T04:59:15.142Z,70.80
2019-02-04T05:04:06.798Z,71.70
2019-02-04T05:08:57.707Z,71.60
2019-02-04T05:13:48.646Z,71.80
2019-02-04T05:18:39.576Z,72.00
2019-02-04T05:23:30.486Z,72.10
2019-02-04T05:28:21.389Z,72.10
2019-02-04T05:33:12.294Z,72.10
2019-02-04T05:38:03.260Z,72.10
2019-02-04T05:42:54.174Z,72.60
2019-02-04T05:47:45.074Z,71.30
2019-02-04T05:52:35.980Z,70.30
2019-02-04T05:57:26.882Z,70.30
2019-02-04T06:02:17.806Z,70.70
2019-02-04T06:07:08.730Z,71.10
2019-02-04T06:11:59.645Z,71.50
2019-02-04T06:16:50.558Z,71.90
2019-02-04T06:21:41.470Z,72.00
2019-02-04T06:26:33.133Z,72.10
2019-02-04T06:31:24.035Z,72.10
2019-02-04T06:36:14.948Z,72.20
2019-02-04T06:41:05.964Z,72.40
2019-02-04T06:45:56.797Z,72.10
2019-02-04T06:50:47.702Z,70.70
2019-02-04T06:55:39.365Z,70.30
2019-02-04T07:00:30.270Z,70.30
2019-02-04T07:05:21.185Z,70.80
2019-02-04T07:10:15.173Z,71.20
2019-02-04T07:15:06.092Z,71.50
2019-02-04T07:19:57.002Z,71.70
2019-02-04T07:24:48.647Z,72.00
2019-02-04T07:29:39.554Z,72.00
2019-02-04T07:34:30.486Z,72.20
2019-02-04T07:39:21.388Z,72.30
2019-02-04T07:44:13.033Z,71.70
2019-02-04T07:49:03.968Z,71.70
2019-02-04T07:53:54.878Z,70.50
2019-02-04T07:58:45.842Z,70.40
2019-02-04T08:03:36.809Z,70.80
2019-02-04T08:08:28.493Z,71.90
2019-02-04T08:13:19.397Z,71.80
2019-02-04T08:18:10.306Z,72.10
2019-02-04T08:23:02.012Z,73.10
2019-02-04T08:27:53.669Z,73.40
2019-02-04T08:32:44.578Z,73.40
2019-02-04T08:37:36.241Z,73.70
2019-02-04T08:42:27.165Z,73.70
2019-02-04T08:47:22.867Z,74.30
2019-02-04T08:52:08.993Z,72.70
2019-02-04T08:56:59.894Z,71.80
2019-02-04T09:01:50.794Z,72.20
2019-02-04T09:06:42.554Z,73.00
2019-02-04T09:11:33.476Z,73.00
2019-02-04T09:16:24.406Z,73.40
2019-02-04T09:21:15.324Z,73.70
2019-02-04T09:26:06.248Z,73.80
2019-02-04T09:30:57.232Z,74.00
2019-02-04T09:35:48.174Z,74.10
2019-02-04T09:40:39.077Z,74.40
2019-02-04T09:45:29.986Z,75.20
2019-02-04T09:50:24.592Z,73.10
2019-02-04T09:55:16.419Z,73.00
2019-02-04T10:00:08.355Z,72.90
2019-02-04T10:04:59.384Z,73.20
2019-02-04T10:09:51.035Z,74.00
2019-02-04T10:14:42.722Z,74.30
2019-02-04T10:19:33.632Z,74.30
2019-02-04T10:24:24.570Z,74.40
2019-02-04T10:29:15.542Z,74.40
2019-02-04T10:34:07.149Z,74.70
2019-02-04T10:38:58.102Z,74.70
2019-02-04T10:43:49.772Z,73.70
2019-02-04T10:48:41.536Z,72.80
2019-02-04T10:53:32.452Z,72.80
2019-02-04T10:58:23.524Z,73.10
2019-02-04T11:03:15.047Z,73.80
2019-02-04T11:08:05.950Z,73.80
2019-02-04T11:12:56.907Z,74.60
2019-02-04T11:17:47.841Z,74.80
2019-02-04T11:22:38.742Z,75.30
2019-02-04T11:27:29.733Z,75.80
2019-02-04T11:32:20.590Z,76.10
2019-02-04T11:37:12.265Z,73.50
2019-02-04T11:42:03.929Z,72.30
2019-02-04T11:46:54.850Z,72.30
2019-02-04T11:51:46.502Z,74.50
2019-02-04T11:56:37.445Z,74.50
2019-02-04T12:01:28.388Z,75.00
2019-02-04T12:06:19.379Z,75.10
2019-02-04T12:11:11.030Z,73.70
2019-02-04T12:16:01.926Z,73.70
2019-02-04T12:20:52.854Z,74.20
2019-02-04T12:25:43.766Z,72.10
2019-02-04T12:30:34.674Z,68.10
2019-02-04T12:35:25.588Z,69.50
2019-02-04T12:40:16.499Z,69.80
2019-02-04T12:45:08.276Z,70.30
2019-02-04T12:49:59.359Z,70.00
2019-02-04T12:54:50.310Z,69.60
2019-02-04T12:59:41.226Z,70.20
2019-02-04T13:04:32.192Z,69.00
2019-02-04T13:09:23.911Z,67.90
2019-02-04T13:14:14.838Z,67.30
2019-02-04T13:19:06.478Z,68.00
2019-02-04T13:23:58.150Z,68.20
2019-02-04T13:28:49.093Z,68.20
2019-02-04T13:33:40.011Z,67.80
2019-02-04T13:38:30.962Z,67.50
2019-02-04T13:43:22.696Z,65.50
2019-02-04T13:48:14.360Z,65.90
2019-02-04T13:53:05.346Z,65.30
2019-02-04T13:57:56.363Z,64.50
2019-02-04T14:02:58.519Z,64.30
2019-02-04T14:07:38.286Z,64.90
2019-02-04T14:12:30.032Z,62.90
2019-02-04T14:17:20.952Z,62.90
2019-02-04T14:22:11.880Z,63.00
2019-02-04T14:27:02.965Z,65.00
2019-02-04T14:31:53.870Z,65.30
2019-02-04T14:36:44.769Z,65.60
2019-02-04T14:41:36.402Z,66.30
2019-02-04T14:46:28.045Z,64.90
2019-02-04T14:57:01.167Z,64.90
2019-02-04T15:02:09.733Z,65.40
2019-02-04T15:07:20.485Z,65.40
2019-02-04T15:12:16.004Z,65.80
2019-02-04T15:17:06.917Z,65.70
2019-02-04T15:22:16.430Z,63.80
2019-02-04T15:27:14.390Z,63.80
2019-02-04T15:32:09.234Z,64.00
2019-02-04T15:37:04.157Z,65.50
2019-02-04T15:42:02.034Z,66.90
2019-02-04T15:47:03.948Z,66.90
2019-02-04T15:51:55.632Z,67.90
2019-02-04T15:56:46.555Z,67.90
2019-02-04T16:01:37.487Z,66.90
2019-02-04T16:06:29.139Z,67.30
2019-02-04T16:11:20.030Z,67.20
2019-02-04T16:16:10.958Z,68.40
2019-02-04T16:21:01.878Z,69.00
2019-02-04T16:25:52.802Z,69.30
2019-02-04T16:30:43.779Z,69.40
2019-02-04T16:35:34.681Z,69.20
2019-02-04T16:40:25.599Z,68.20
2019-02-04T16:45:16.505Z,67.40
2019-02-04T16:50:10.946Z,68.50
2019-02-04T16:55:01.838Z,68.50
2019-02-04T16:59:52.741Z,68.80
2019-02-04T17:04:43.707Z,68.90
2019-02-04T17:09:34.618Z,69.00
2019-02-04T17:14:25.762Z,68.80
2019-02-04T17:19:16.801Z,69.60
2019-02-04T17:24:07.936Z,68.80
2019-02-04T17:28:58.884Z,68.10
2019-02-04T17:33:49.798Z,68.50
2019-02-04T17:38:40.797Z,68.70
2019-02-04T17:43:31.814Z,69.00
2019-02-04T17:48:22.741Z,69.30
2019-02-04T17:53:14.466Z,69.80
2019-02-04T17:58:05.431Z,69.40
2019-02-04T18:02:57.134Z,70.00
2019-02-04T18:07:48.702Z,69.20
2019-02-04T18:12:39.601Z,68.10
2019-02-04T18:17:30.522Z,68.30
2019-02-04T18:22:22.174Z,68.90
2019-02-04T18:27:13.219Z,68.90
2019-02-04T18:32:04.244Z,69.10
2019-02-04T18:36:55.140Z,69.30
2019-02-04T18:41:46.112Z,69.40
2019-02-04T18:46:37.030Z,69.40
2019-02-04T18:51:27.979Z,70.10
2019-02-04T18:56:19.621Z,68.10
2019-02-04T19:01:10.651Z,68.10
2019-02-04T19:06:01.629Z,68.40
2019-02-04T19:10:52.642Z,68.90
2019-02-04T19:15:43.666Z,69.20
2019-02-04T19:20:34.678Z,69.50
2019-02-04T19:25:26.237Z,69.50
2019-02-04T19:30:21.253Z,69.50
2019-02-04T19:35:13.016Z,69.40
2019-02-04T19:40:04.680Z,69.40
2019-02-04T19:44:55.632Z,68.20
2019-02-04T19:49:46.657Z,68.00
2019-02-04T19:54:37.558Z,68.30
2019-02-04T19:59:28.582Z,68.90
2019-02-04T20:04:19.501Z,69.30
2019-02-04T20:09:10.547Z,69.40
2019-02-04T20:14:02.267Z,70.30
2019-02-04T20:18:53.182Z,69.60
2019-02-04T20:23:44.115Z,70.10
2019-02-04T20:28:35.114Z,69.50
2019-02-04T20:33:26.032Z,68.30
2019-02-04T20:38:17.679Z,68.60
2019-02-04T20:43:08.705Z,68.60
2019-02-04T20:47:59.705Z,69.50
2019-02-04T20:52:51.454Z,69.60
2019-02-04T20:57:42.474Z,69.60
2019-02-04T21:02:33.382Z,69.70
2019-02-04T21:07:24.315Z,69.70
2019-02-04T21:12:15.337Z,70.10
2019-02-04T21:17:06.285Z,69.70
2019-02-04T21:21:57.943Z,68.20
2019-02-04T21:26:48.906Z,68.20
2019-02-04T21:31:39.835Z,68.50
2019-02-04T21:36:30.758Z,68.90
2019-02-04T21:41:21.757Z,69.20
2019-02-04T21:46:12.686Z,69.50
2019-02-04T21:51:03.596Z,69.70
2019-02-04T21:55:54.513Z,69.90
2019-02-04T22:00:45.426Z,69.90
2019-02-04T22:05:36.323Z,70.10
2019-02-04T22:10:27.250Z,68.70
2019-02-04T22:15:18.157Z,68.20
2019-02-04T22:20:09.076Z,68.50
2019-02-04T22:24:59.993Z,68.80
2019-02-04T22:29:50.918Z,69.20
2019-02-04T22:34:41.847Z,69.40
2019-02-04T22:39:32.890Z,69.50
2019-02-04T22:44:23.801Z,69.50
2019-02-04T22:49:14.729Z,69.50
2019-02-04T22:54:05.636Z,69.90
2019-02-04T22:58:56.581Z,68.30
2019-02-04T23:03:47.500Z,67.60
2019-02-04T23:08:38.429Z,67.80
2019-02-04T23:13:30.079Z,68.50
2019-02-04T23:18:21.772Z,68.70
2019-02-04T23:23:12.666Z,68.60
2019-02-04T23:28:03.592Z,68.80
2019-02-04T23:32:54.516Z,69.10
2019-02-04T23:37:45.450Z,69.10
2019-02-04T23:42:36.354Z,69.30
2019-02-04T23:47:27.281Z,69.20
2019-02-04T23:52:18.203Z,67.90
2019-02-04T23:57:09.182Z,67.60
